createdAt,value
2017-04-15T08:12:58.509Z,14.05
2017-04-15T08:14:04.667Z,12.87
2017-04-15T08:15:09.497Z,13.98
2017-04-15T08:16:15.945Z,13.45
2017-04-15T08:17:21.569Z,14.07
2017-04-15T08:18:27.308Z,13.58
2017-04-15T08:19:32.880Z,12.85
2017-04-15T08:20:37.888Z,12.35
2017-04-15T08:21:44.261Z,13.57
2017-04-15T08:22:49.941Z,12.70
2017-04-15T08:23:56.386Z,11.92
2017-04-15T08:25:02.034Z,12.70
2017-04-15T08:26:07.023Z,12.90
2017-04-15T08:27:13.473Z,12.53
2017-04-15T08:28:19.120Z,11.60
2017-04-15T08:29:24.861Z,12.03
2017-04-15T08:30:31.176Z,12.15
2017-04-15T08:31:35.931Z,12.03
2017-04-15T08:32:41.479Z,12.23
2017-04-15T08:33:47.667Z,12.17
2017-04-15T08:34:53.283Z,11.47
2017-04-15T08:35:58.844Z,11.25
2017-04-15T08:37:04.554Z,11.87
2017-04-15T08:38:09.364Z,11.57
2017-04-15T08:39:16.065Z,11.55
2017-04-15T08:40:22.385Z,10.97
2017-04-15T08:41:27.896Z,11.60
2017-04-15T08:42:33.588Z,12.88
2017-04-15T08:43:39.265Z,12.38
2017-04-15T08:44:44.801Z,11.15
2017-04-15T08:45:50.540Z,10.90
2017-04-15T08:46:55.977Z,11.15
2017-04-15T08:48:01.760Z,11.37
2017-04-15T08:49:07.157Z,11.10
2017-04-15T08:50:12.685Z,11.02
2017-04-15T08:51:18.180Z,11.00
2017-04-15T08:52:23.833Z,10.55
2017-04-15T08:53:29.425Z,10.40
2017-04-15T08:54:35.032Z,11.20
2017-04-15T08:55:40.751Z,10.08
2017-04-15T08:56:46.484Z,11.00
2017-04-15T08:57:52.861Z,10.48
2017-04-15T08:58:58.536Z,10.77
2017-04-15T09:00:03.357Z,10.42
2017-04-15T09:01:09.617Z,10.33
2017-04-15T09:02:15.220Z,10.18
2017-04-15T09:03:20.700Z,9.58
2017-04-15T09:04:26.308Z,10.20
2017-04-15T09:05:31.838Z,10.55
2017-04-15T09:06:37.464Z,9.52
2017-04-15T09:07:43.224Z,10.50
2017-04-15T09:08:48.752Z,9.52
2017-04-15T09:09:54.556Z,9.65
2017-04-15T09:11:00.829Z,11.03
2017-04-15T09:12:07.129Z,10.02
2017-04-15T09:13:12.858Z,10.30
2017-04-15T09:14:18.511Z,10.30
2017-04-15T09:15:23.308Z,9.80
2017-04-15T09:16:29.644Z,10.57
2017-04-15T09:17:35.246Z,9.98
2017-04-15T09:18:40.861Z,9.28
2017-04-15T09:19:45.755Z,9.90
2017-04-15T09:20:52.134Z,9.35
2017-04-15T09:21:57.794Z,9.48
2017-04-15T09:23:03.260Z,9.18
2017-04-15T09:24:09.028Z,10.27
2017-04-15T09:25:14.505Z,10.08
2017-04-15T09:26:20.069Z,9.97
2017-04-15T09:27:25.744Z,9.85
2017-04-15T09:28:31.342Z,10.45
2017-04-15T09:29:36.954Z,11.47
2017-04-15T09:30:43.288Z,9.65
2017-04-15T09:31:47.996Z,10.72
2017-04-15T09:32:55.157Z,10.00
2017-04-15T09:34:01.675Z,9.68
2017-04-15T09:35:06.819Z,11.85
2017-04-15T09:36:13.121Z,11.08
2017-04-15T09:37:18.709Z,9.33
2017-04-15T09:38:24.361Z,8.55
2017-04-15T09:39:29.922Z,9.37
2017-04-15T09:40:34.937Z,8.43
2017-04-15T09:41:41.187Z,8.47
2017-04-15T09:42:46.004Z,7.87
2017-04-15T09:43:52.470Z,8.60
2017-04-15T09:44:58.062Z,8.03
2017-04-15T09:46:04.765Z,8.37
2017-04-15T09:47:10.329Z,8.02
2017-04-15T09:48:15.912Z,8.35
2017-04-15T09:49:21.540Z,8.02
2017-04-15T09:50:27.412Z,7.42
2017-04-15T09:51:33.206Z,7.75
2017-04-15T09:52:38.708Z,7.70
2017-04-15T09:53:44.084Z,7.87
2017-04-15T09:54:48.856Z,6.63
2017-04-15T09:55:55.212Z,7.63
2017-04-15T09:57:00.132Z,7.47
2017-04-15T09:58:06.385Z,7.18
2017-04-15T09:59:11.912Z,6.78
2017-04-15T10:00:16.690Z,7.13
2017-04-15T10:01:22.177Z,6.52
2017-04-15T10:02:27.745Z,6.52
2017-04-15T10:03:34.057Z,7.10
2017-04-15T10:04:39.499Z,6.62
2017-04-15T10:05:45.016Z,6.45
2017-04-15T10:06:50.681Z,6.22
2017-04-15T10:07:56.211Z,6.90
2017-04-15T10:09:01.840Z,5.10
2017-04-15T10:10:07.525Z,5.23
2017-04-15T10:11:13.092Z,5.43
2017-04-15T10:12:18.765Z,5.97
2017-04-15T10:13:23.702Z,5.17
2017-04-15T10:14:29.944Z,5.50
2017-04-15T10:15:35.481Z,5.55
2017-04-15T10:16:41.071Z,5.38
2017-04-15T10:17:46.655Z,5.20
2017-04-15T10:18:52.317Z,5.98
2017-04-15T10:19:57.845Z,5.52
2017-04-15T10:21:03.457Z,5.03
2017-04-15T10:22:08.994Z,5.97
2017-04-15T10:23:14.533Z,5.53
2017-04-15T10:24:20.110Z,5.68
2017-04-15T10:25:26.501Z,5.32
2017-04-15T10:26:32.333Z,4.90
2017-04-15T10:27:37.951Z,5.45
2017-04-15T10:28:44.316Z,6.10
2017-04-15T10:29:50.232Z,4.85
2017-04-15T10:30:55.833Z,5.63
2017-04-15T10:32:01.517Z,4.68
2017-04-15T10:33:07.086Z,5.07
2017-04-15T10:34:12.660Z,5.53
2017-04-15T10:35:18.181Z,5.48
2017-04-15T10:36:23.647Z,5.73
2017-04-15T10:37:29.114Z,5.00
2017-04-15T10:38:33.807Z,5.10
2017-04-15T10:39:40.154Z,5.17
2017-04-15T10:40:45.860Z,4.87
2017-04-15T10:41:51.682Z,4.50
2017-04-15T10:42:58.056Z,4.28
2017-04-15T10:44:03.977Z,4.87
2017-04-15T10:45:09.570Z,4.27
2017-04-15T10:46:16.487Z,4.57
2017-04-15T10:47:21.933Z,3.90
2017-04-15T10:48:27.496Z,4.98
2017-04-15T10:49:32.945Z,4.43
2017-04-15T10:50:38.566Z,5.18
2017-04-15T10:51:44.138Z,4.55
2017-04-15T10:52:49.822Z,4.72
2017-04-15T10:53:55.377Z,4.77
2017-04-15T10:55:00.982Z,4.65
2017-04-15T10:56:06.584Z,4.80
2017-04-15T10:57:12.206Z,4.80
2017-04-15T10:58:17.843Z,4.70
2017-04-15T10:59:23.394Z,4.70
2017-04-15T11:00:29.899Z,4.33
2017-04-15T11:01:35.732Z,4.10
2017-04-15T11:02:41.547Z,4.68
2017-04-15T11:03:47.869Z,4.50
2017-04-15T11:04:53.849Z,3.73
2017-04-15T11:06:00.596Z,4.60
2017-04-15T11:07:06.774Z,3.88
2017-04-15T11:08:12.290Z,3.70
2017-04-15T11:09:17.833Z,4.18
2017-04-15T11:10:23.476Z,4.15
2017-04-15T11:11:29.263Z,4.27
2017-04-15T11:12:35.950Z,4.00
2017-04-15T11:13:40.933Z,3.72
2017-04-15T11:14:47.175Z,4.52
2017-04-15T11:15:52.887Z,4.22
2017-04-15T11:16:58.780Z,4.30
2017-04-15T11:18:06.741Z,3.88
2017-04-15T11:19:13.540Z,4.25
2017-04-15T11:20:19.266Z,4.05
2017-04-15T11:21:25.683Z,4.27
2017-04-15T11:22:33.060Z,3.37
2017-04-15T11:23:38.977Z,3.67
2017-04-15T11:24:44.868Z,3.42
2017-04-15T11:25:51.021Z,4.08
2017-04-15T11:26:56.852Z,3.92
2017-04-15T11:28:03.664Z,3.57
2017-04-15T11:29:09.712Z,3.98
2017-04-15T11:30:15.423Z,4.08
2017-04-15T11:31:21.910Z,3.85
2017-04-15T11:32:27.789Z,3.97
2017-04-15T11:33:34.184Z,4.23
2017-04-15T11:34:40.695Z,4.72
2017-04-15T11:35:47.502Z,4.58
2017-04-15T11:36:53.956Z,4.07
2017-04-15T11:37:59.047Z,4.37
2017-04-15T11:39:05.987Z,5.08
2017-04-15T11:40:12.412Z,4.42
2017-04-15T11:41:20.630Z,4.43
2017-04-15T11:42:27.464Z,4.88
2017-04-15T11:43:34.868Z,4.55
2017-04-15T11:44:40.788Z,4.48
2017-04-15T11:45:46.389Z,5.68
2017-04-15T11:46:53.076Z,4.88
2017-04-15T11:47:59.117Z,5.23
2017-04-15T11:49:05.225Z,5.33
2017-04-15T11:50:10.945Z,4.62
2017-04-15T11:51:16.573Z,5.38
2017-04-15T11:52:22.389Z,5.07
2017-04-15T11:53:27.911Z,5.23
2017-04-15T11:54:33.345Z,4.88
2017-04-15T11:55:38.920Z,4.73
2017-04-15T11:56:44.454Z,5.08
2017-04-15T11:57:50.145Z,5.63
2017-04-15T11:58:55.710Z,5.20
2017-04-15T12:00:01.280Z,4.82
2017-04-15T12:01:06.905Z,5.08
2017-04-15T12:02:12.561Z,5.25
2017-04-15T12:03:18.218Z,4.83
2017-04-15T12:04:23.840Z,5.45
2017-04-15T12:05:29.620Z,4.67
2017-04-15T12:06:35.112Z,4.80
2017-04-15T12:07:40.749Z,5.00
2017-04-15T12:08:46.345Z,5.58
2017-04-15T12:09:52.009Z,5.47
2017-04-15T12:10:57.670Z,4.93
2017-04-15T12:12:03.202Z,5.68
2017-04-15T12:13:08.825Z,5.13
2017-04-15T12:14:14.534Z,4.77
2017-04-15T12:15:19.977Z,4.67
2017-04-15T12:16:25.457Z,4.80
2017-04-15T12:17:31.042Z,4.55
2017-04-15T12:18:35.905Z,4.43
2017-04-15T12:19:41.533Z,4.80
2017-04-15T12:20:47.017Z,5.27
2017-04-15T12:21:52.517Z,5.47
2017-04-15T12:22:58.135Z,4.90
2017-04-15T12:24:03.738Z,5.58
2017-04-15T12:25:09.334Z,4.70
2017-04-15T12:26:15.037Z,4.22
2017-04-15T12:27:20.542Z,5.07
2017-04-15T12:28:26.162Z,4.50
2017-04-15T12:29:30.967Z,4.73
2017-04-15T12:30:36.522Z,5.42
2017-04-15T12:31:42.092Z,5.27
2017-04-15T12:32:47.641Z,5.57
2017-04-15T12:33:53.289Z,5.03
2017-04-15T12:34:59.911Z,7.65
2017-04-15T12:36:05.956Z,6.50
2017-04-15T12:37:11.645Z,5.55
2017-04-15T12:38:18.168Z,5.85
2017-04-15T12:39:24.812Z,5.10
2017-04-15T12:40:31.650Z,5.67
2017-04-15T12:41:39.488Z,4.47
2017-04-15T12:42:46.033Z,5.22
2017-04-15T12:43:52.576Z,5.20
2017-04-15T12:44:59.564Z,5.03
2017-04-15T12:46:06.759Z,5.60
2017-04-15T12:47:14.116Z,5.87
2017-04-15T12:48:20.370Z,5.62
2017-04-15T12:49:26.513Z,4.87
2017-04-15T12:50:32.320Z,5.23
2017-04-15T12:51:39.339Z,4.63
2017-04-15T12:52:45.481Z,5.42
2017-04-15T12:53:50.693Z,4.63
2017-04-15T12:54:56.893Z,5.87
2017-04-15T12:56:04.336Z,4.85
2017-04-15T12:57:10.016Z,5.20
2017-04-15T12:58:15.748Z,4.88
2017-04-15T12:59:22.537Z,4.97
2017-04-15T13:00:29.217Z,5.63
2017-04-15T13:01:35.747Z,5.12
2017-04-15T13:02:42.384Z,6.35
2017-04-15T13:03:48.761Z,7.10
2017-04-15T13:04:54.373Z,5.17
2017-04-15T13:06:00.327Z,5.65
2017-04-15T13:07:06.728Z,6.00
2017-04-15T13:08:14.317Z,5.40
2017-04-15T13:09:20.354Z,5.73
2017-04-15T13:10:27.457Z,5.27
2017-04-15T13:11:33.657Z,5.23
2017-04-15T13:12:39.953Z,6.02
2017-04-15T13:13:45.540Z,5.42
2017-04-15T13:14:52.210Z,5.23
2017-04-15T13:15:58.307Z,5.03
2017-04-15T13:17:04.484Z,5.47
2017-04-15T13:18:09.401Z,5.72
2017-04-15T13:19:15.700Z,5.42
2017-04-15T13:20:21.508Z,4.97
2017-04-15T13:21:27.086Z,5.38
2017-04-15T13:22:32.776Z,5.70
2017-04-15T13:23:38.290Z,5.45
2017-04-15T13:24:43.952Z,5.80
2017-04-15T13:25:49.577Z,5.07
2017-04-15T13:26:55.324Z,4.82
2017-04-15T13:28:01.105Z,6.28
2017-04-15T13:29:06.729Z,5.63
2017-04-15T13:30:12.288Z,5.62
2017-04-15T13:31:18.112Z,6.40
2017-04-15T13:32:24.497Z,6.03
2017-04-15T13:33:30.972Z,5.45
2017-04-15T13:34:36.628Z,5.83
2017-04-15T13:35:42.170Z,5.32
2017-04-15T13:36:47.912Z,5.90
2017-04-15T13:37:53.700Z,6.00
2017-04-15T13:38:59.270Z,6.17
2017-04-15T13:40:04.170Z,5.80
2017-04-15T13:41:10.524Z,6.17
2017-04-15T13:42:16.225Z,5.62
2017-04-15T13:43:21.966Z,6.08
2017-04-15T13:44:27.418Z,6.75
2017-04-15T13:45:32.181Z,6.57
2017-04-15T13:46:38.464Z,7.62
2017-04-15T13:47:44.883Z,6.78
2017-04-15T13:48:50.851Z,7.12
2017-04-15T13:49:56.358Z,6.97
2017-04-15T13:51:02.137Z,7.28
2017-04-15T13:52:06.840Z,6.45
2017-04-15T13:53:12.317Z,6.77
2017-04-15T13:54:17.860Z,6.18
2017-04-15T13:55:23.765Z,6.93
2017-04-15T13:56:30.137Z,6.95
2017-04-15T13:57:35.861Z,6.93
2017-04-15T13:58:40.673Z,7.10
2017-04-15T13:59:46.224Z,7.13
2017-04-15T14:00:51.664Z,7.38
2017-04-15T14:01:57.293Z,7.32
2017-04-15T14:03:03.061Z,7.07
2017-04-15T14:04:08.645Z,7.23
2017-04-15T14:05:14.369Z,8.25
2017-04-15T14:06:19.941Z,8.60
2017-04-15T14:07:25.638Z,8.47
2017-04-15T14:08:38.433Z,8.40
2017-04-15T14:09:44.056Z,8.40
2017-04-15T14:10:49.863Z,8.48
2017-04-15T14:11:55.341Z,11.42
2017-04-15T14:13:00.860Z,14.62
2017-04-15T14:14:06.560Z,17.43
2017-04-15T14:15:13.518Z,12.08
2017-04-15T14:16:19.938Z,10.92
2017-04-15T14:17:25.490Z,10.07
2017-04-15T14:18:30.282Z,10.30
2017-04-15T14:19:36.473Z,8.90
2017-04-15T14:20:42.176Z,7.85
2017-04-15T14:21:47.845Z,7.95
2017-04-15T14:22:53.503Z,8.02
2017-04-15T14:23:59.054Z,7.27
2017-04-15T14:25:04.761Z,7.95
2017-04-15T14:26:10.270Z,6.70
2017-04-15T14:27:15.865Z,6.35
2017-04-15T14:28:21.416Z,6.33
2017-04-15T14:29:27.269Z,7.00
2017-04-15T14:30:32.893Z,5.07
2017-04-15T14:31:38.552Z,5.57
2017-04-15T14:32:44.912Z,5.37
2017-04-15T14:33:50.469Z,5.72
2017-04-15T14:34:56.068Z,6.23
2017-04-15T14:36:01.725Z,5.93
2017-04-15T14:37:07.504Z,6.55
2017-04-15T14:38:13.017Z,6.57
2017-04-15T14:39:18.645Z,3.90
2017-04-15T14:40:24.161Z,4.67
2017-04-15T14:41:29.718Z,4.97
2017-04-15T14:42:35.313Z,4.47
2017-04-15T14:43:40.993Z,4.52
2017-04-15T14:44:46.533Z,3.97
2017-04-15T14:45:52.173Z,3.80
2017-04-15T14:46:57.121Z,4.52
2017-04-15T14:48:03.513Z,4.72
2017-04-15T14:49:09.089Z,4.87
2017-04-15T14:50:14.674Z,4.03
2017-04-15T14:51:20.185Z,4.48
2017-04-15T14:52:27.490Z,4.83
2017-04-15T14:53:33.509Z,5.18
2017-04-15T14:54:39.008Z,5.00
2017-04-15T14:55:44.548Z,4.88
2017-04-15T14:56:50.098Z,5.18
2017-04-15T14:57:55.667Z,5.27
2017-04-15T14:59:01.432Z,5.65
2017-04-15T15:00:07.034Z,5.63
2017-04-15T15:01:12.500Z,5.72
2017-04-15T15:02:18.068Z,5.37
2017-04-15T15:03:23.616Z,5.30
2017-04-15T15:04:29.196Z,6.18
2017-04-15T15:05:34.747Z,4.70
2017-04-15T15:06:40.324Z,4.42
2017-04-15T15:07:45.886Z,3.55
2017-04-15T15:08:51.580Z,3.25
2017-04-15T15:09:57.348Z,2.77
2017-04-15T15:11:02.957Z,2.65
2017-04-15T15:12:08.500Z,2.27
2017-04-15T15:13:14.125Z,2.57
2017-04-15T15:14:19.697Z,2.28
2017-04-15T15:15:26.502Z,2.50
2017-04-15T15:16:32.107Z,2.33
2017-04-15T15:17:38.344Z,2.62
2017-04-15T15:18:44.097Z,2.88
2017-04-15T15:19:49.649Z,3.03
2017-04-15T15:20:55.316Z,3.20
2017-04-15T15:22:00.704Z,3.55
2017-04-15T15:23:06.282Z,3.82
2017-04-15T15:24:12.269Z,4.12
2017-04-15T15:25:18.433Z,4.07
2017-04-15T15:26:24.113Z,3.93
2017-04-15T15:27:29.642Z,4.22
2017-04-15T15:28:35.214Z,4.43
2017-04-15T15:29:40.886Z,5.10
2017-04-15T15:30:46.500Z,4.97
2017-04-15T15:31:52.964Z,4.92
2017-04-15T15:32:59.372Z,4.93
2017-04-15T15:34:04.976Z,6.40
2017-04-15T15:35:10.583Z,6.08
2017-04-15T15:36:16.138Z,7.08
2017-04-15T15:37:21.779Z,6.98
2017-04-15T15:38:26.547Z,6.12
2017-04-15T15:39:32.852Z,10.72
2017-04-15T15:40:38.653Z,6.62
2017-04-15T15:41:44.220Z,8.18
2017-04-15T15:42:49.927Z,6.97
2017-04-15T15:43:55.477Z,6.80
2017-04-15T15:45:00.896Z,7.03
2017-04-15T15:46:06.492Z,6.87
2017-04-15T15:47:12.025Z,7.73
2017-04-15T15:48:18.721Z,7.17
2017-04-15T15:49:24.316Z,6.57
2017-04-15T15:50:29.918Z,7.52
2017-04-15T15:51:35.444Z,7.10
2017-04-15T15:52:40.964Z,7.87
2017-04-15T15:53:46.708Z,7.50
2017-04-15T15:54:52.335Z,7.40
2017-04-15T15:55:57.857Z,8.03
2017-04-15T15:57:03.433Z,7.75
2017-04-15T15:58:09.033Z,7.68
2017-04-15T15:59:14.593Z,9.38
2017-04-15T16:00:20.108Z,9.05
2017-04-15T16:01:25.772Z,9.02
2017-04-15T16:02:32.216Z,9.03
2017-04-15T16:03:37.120Z,8.87
2017-04-15T16:04:43.452Z,9.05
2017-04-15T16:05:48.885Z,9.53
2017-04-15T16:06:54.658Z,8.93
2017-04-15T16:08:00.264Z,10.52
2017-04-15T16:09:05.997Z,9.67
2017-04-15T16:10:12.441Z,9.67
2017-04-15T16:11:17.925Z,9.55
2017-04-15T16:12:23.478Z,9.83
2017-04-15T16:13:28.913Z,9.60
2017-04-15T16:14:34.732Z,10.47
2017-04-15T16:15:41.556Z,9.23
2017-04-15T16:16:47.889Z,9.75
2017-04-15T16:17:52.727Z,9.48
2017-04-15T16:18:58.950Z,10.35
2017-04-15T16:20:04.692Z,10.30
2017-04-15T16:21:10.440Z,11.92
2017-04-15T16:22:15.838Z,11.63
2017-04-15T16:23:21.449Z,10.72
2017-04-15T16:24:27.033Z,9.83
2017-04-15T16:25:32.467Z,10.70
2017-04-15T16:26:38.136Z,12.02
2017-04-15T16:27:43.633Z,10.58
2017-04-15T16:28:49.203Z,11.68
2017-04-15T16:29:54.788Z,11.20
2017-04-15T16:31:00.353Z,10.88
2017-04-15T16:32:05.952Z,11.38
2017-04-15T16:33:10.721Z,10.35
2017-04-15T16:34:17.173Z,11.27
2017-04-15T16:35:22.712Z,11.75
2017-04-15T16:36:28.385Z,11.87
2017-04-15T16:37:34.081Z,13.08
2017-04-15T16:38:39.645Z,13.57
2017-04-15T16:39:44.570Z,12.87
2017-04-15T16:40:50.996Z,12.27
2017-04-15T16:41:56.657Z,14.05
2017-04-15T16:43:01.517Z,14.18
2017-04-15T16:44:06.978Z,20.70
2017-04-15T16:45:12.476Z,12.55
2017-04-15T16:46:17.483Z,11.70
2017-04-15T16:47:23.824Z,11.58
2017-04-15T16:48:30.561Z,11.68
2017-04-15T16:49:36.122Z,12.60
2017-04-15T16:50:41.089Z,12.95
2017-04-15T16:51:47.333Z,10.10
2017-04-15T16:52:52.940Z,12.75
2017-04-15T16:53:58.488Z,13.45
2017-04-15T16:55:04.072Z,11.80
2017-04-15T16:56:09.737Z,13.73
2017-04-15T16:57:15.144Z,12.85
2017-04-15T16:58:20.821Z,12.23
2017-04-15T16:59:26.480Z,12.22
2017-04-15T17:00:32.012Z,11.58
2017-04-15T17:01:37.628Z,11.77
2017-04-15T17:02:43.204Z,13.23
2017-04-15T17:03:48.829Z,11.57
2017-04-15T17:04:54.555Z,12.27
2017-04-15T17:06:00.036Z,11.37
2017-04-15T17:07:05.642Z,10.87
2017-04-15T17:08:10.385Z,11.42
2017-04-15T17:09:15.877Z,11.60
2017-04-15T17:10:22.216Z,12.70
2017-04-15T17:11:27.038Z,12.70
2017-04-15T17:12:33.372Z,14.08
2017-04-15T17:13:39.005Z,12.37
2017-04-15T17:14:43.764Z,13.92
2017-04-15T17:15:51.224Z,14.02
2017-04-15T17:16:56.827Z,12.27
2017-04-15T17:18:02.365Z,13.03
2017-04-15T17:19:08.036Z,12.62
2017-04-15T17:20:13.348Z,12.50
2017-04-15T17:21:19.397Z,12.73
2017-04-15T17:22:24.837Z,12.77
2017-04-15T17:23:30.428Z,13.20
2017-04-15T17:24:36.041Z,11.55
2017-04-15T17:25:41.503Z,14.22
2017-04-15T17:26:47.113Z,12.47
2017-04-15T17:27:52.701Z,14.00
2017-04-15T17:28:58.252Z,12.68
2017-04-15T17:30:03.941Z,13.73
2017-04-15T17:31:09.537Z,13.48
2017-04-15T17:32:15.140Z,12.83
2017-04-15T17:33:20.540Z,12.53
2017-04-15T17:34:26.141Z,13.18
2017-04-15T17:35:31.644Z,13.05
2017-04-15T17:36:37.261Z,13.50
2017-04-15T17:37:42.901Z,12.57
2017-04-15T17:38:48.289Z,12.33
2017-04-15T17:39:53.867Z,13.50
2017-04-15T17:40:59.404Z,12.55
2017-04-15T17:42:04.973Z,11.53
2017-04-15T17:43:11.325Z,11.63
2017-04-15T17:44:17.213Z,12.17
2017-04-15T17:45:22.800Z,12.27
2017-04-15T17:46:28.341Z,11.85
2017-04-15T17:47:34.624Z,12.75
2017-04-15T17:48:40.894Z,13.05
2017-04-15T17:49:46.421Z,11.50
2017-04-15T17:50:51.320Z,11.75
2017-04-15T17:51:57.560Z,12.27
2017-04-15T17:53:03.190Z,12.55
2017-04-15T17:54:08.957Z,11.45
2017-04-15T17:55:14.385Z,11.07
2017-04-15T17:56:19.951Z,12.20
2017-04-15T17:57:25.520Z,11.93
2017-04-15T17:58:31.089Z,11.47
2017-04-15T17:59:36.768Z,12.18
2017-04-15T18:00:42.397Z,11.90
2017-04-15T18:01:47.053Z,11.67
2017-04-15T18:02:53.381Z,12.93
2017-04-15T18:03:59.042Z,11.45
2017-04-15T18:05:04.688Z,11.63
2017-04-15T18:06:10.136Z,12.95
2017-04-15T18:07:15.765Z,12.77
2017-04-15T18:08:21.364Z,14.37
2017-04-15T18:09:26.914Z,12.83
2017-04-15T18:10:32.644Z,15.65
2017-04-15T18:11:38.295Z,13.30
2017-04-15T18:12:43.877Z,14.65
2017-04-15T18:13:49.445Z,13.63
2017-04-15T18:14:54.994Z,14.67
2017-04-15T18:16:01.770Z,13.33
2017-04-15T18:17:07.921Z,14.20
2017-04-15T18:18:13.384Z,13.62
2017-04-15T18:19:19.054Z,13.50
2017-04-15T18:20:23.988Z,13.02
2017-04-15T18:21:30.441Z,14.63
2017-04-15T18:22:35.963Z,13.28
2017-04-15T18:23:41.632Z,13.07
2017-04-15T18:24:47.237Z,13.47
2017-04-15T18:25:52.933Z,12.95
2017-04-15T18:26:58.552Z,13.25
2017-04-15T18:28:04.109Z,12.87
2017-04-15T18:29:09.751Z,13.55
2017-04-15T18:30:15.329Z,13.80
2017-04-15T18:31:21.015Z,14.10
2017-04-15T18:32:26.572Z,13.38
2017-04-15T18:33:32.214Z,14.40
2017-04-15T18:34:37.974Z,13.38
2017-04-15T18:35:43.501Z,14.75
2017-04-15T18:36:49.159Z,15.02
2017-04-15T18:37:54.963Z,14.85
2017-04-15T18:39:01.375Z,14.15
2017-04-15T18:40:06.904Z,13.98
2017-04-15T18:41:12.465Z,13.92
2017-04-15T18:42:17.889Z,13.08
2017-04-15T18:43:23.614Z,12.23
2017-04-15T18:44:29.105Z,11.48
2017-04-15T18:45:34.746Z,12.42
2017-04-15T18:46:40.288Z,12.70
2017-04-15T18:47:45.021Z,12.43
2017-04-15T18:48:52.332Z,11.40
2017-04-15T18:49:57.885Z,14.15
2017-04-15T18:51:03.488Z,12.20
2017-04-15T18:52:09.077Z,12.20
2017-04-15T18:53:14.658Z,11.95
2017-04-15T18:54:20.128Z,12.02
2017-04-15T18:55:25.695Z,12.33
2017-04-15T18:56:31.348Z,12.02
2017-04-15T18:57:36.888Z,11.45
2017-04-15T18:58:42.440Z,10.30
2017-04-15T18:59:48.312Z,10.83
2017-04-15T19:00:53.013Z,11.85
2017-04-15T19:01:59.424Z,11.47
2017-04-15T19:03:05.794Z,11.43
2017-04-15T19:04:11.712Z,11.63
2017-04-15T19:05:17.493Z,10.55
2017-04-15T19:06:23.953Z,10.93
2017-04-15T19:07:29.549Z,11.55
2017-04-15T19:08:35.288Z,11.00
2017-04-15T19:09:41.012Z,10.25
2017-04-15T19:10:45.729Z,10.88
2017-04-15T19:11:51.926Z,10.72
2017-04-15T19:12:57.841Z,10.05
2017-04-15T19:14:03.414Z,10.53
2017-04-15T19:15:08.301Z,10.40
2017-04-15T19:16:14.718Z,10.12
2017-04-15T19:17:20.333Z,11.12
2017-04-15T19:18:26.489Z,11.18
2017-04-15T19:19:32.095Z,11.65
2017-04-15T19:20:37.853Z,9.77
2017-04-15T19:21:43.445Z,11.45
2017-04-15T19:22:49.082Z,11.22
2017-04-15T19:23:54.492Z,11.52
2017-04-15T19:24:59.118Z,12.15
2017-04-15T19:26:05.408Z,12.58
2017-04-15T19:27:11.101Z,12.25
2017-04-15T19:28:16.659Z,11.43
2017-04-15T19:29:22.276Z,12.22
2017-04-15T19:30:27.151Z,12.65
2017-04-15T19:31:33.545Z,11.87
2017-04-15T19:32:39.213Z,12.05
2017-04-15T19:33:44.787Z,12.23
2017-04-15T19:34:51.041Z,11.40
2017-04-15T19:35:55.896Z,11.42
2017-04-15T19:37:02.361Z,11.87
2017-04-15T19:38:07.930Z,12.20
2017-04-15T19:39:13.457Z,13.00
2017-04-15T19:40:19.165Z,12.82
2017-04-15T19:41:24.758Z,11.52
2017-04-15T19:42:29.632Z,12.27
2017-04-15T19:43:36.005Z,11.87
2017-04-15T19:44:41.637Z,11.10
2017-04-15T19:45:47.177Z,10.95
2017-04-15T19:46:52.746Z,12.78
2017-04-15T19:47:58.219Z,11.93
2017-04-15T19:49:04.889Z,11.92
2017-04-15T19:50:10.452Z,12.02
2017-04-15T19:51:15.939Z,13.13
2017-04-15T19:52:21.693Z,13.07
2017-04-15T19:53:27.282Z,13.42
2017-04-15T19:54:32.845Z,16.82
2017-04-15T19:55:37.736Z,16.25
2017-04-15T19:56:43.313Z,16.08
2017-04-15T19:57:48.138Z,13.70
2017-04-15T19:58:53.784Z,14.55
2017-04-15T20:00:00.064Z,13.98
2017-04-15T20:01:05.812Z,13.90
2017-04-15T20:02:11.386Z,13.95
2017-04-15T20:03:16.943Z,13.55
2017-04-15T20:04:21.753Z,12.62
2017-04-15T20:05:27.969Z,12.95
2017-04-15T20:06:33.497Z,14.10
2017-04-15T20:07:39.092Z,11.80
2017-04-15T20:08:44.652Z,11.63
2017-04-15T20:09:50.133Z,12.15
2017-04-15T20:10:55.862Z,11.82
2017-04-15T20:12:01.357Z,12.12
2017-04-15T20:13:06.140Z,11.43
2017-04-15T20:14:11.548Z,12.42
2017-04-15T20:15:17.314Z,11.38
2017-04-15T20:16:23.041Z,12.95
2017-04-15T20:17:28.605Z,11.73
2017-04-15T20:18:34.226Z,11.20
2017-04-15T20:19:39.815Z,13.15
2017-04-15T20:20:45.346Z,11.87
2017-04-15T20:21:51.096Z,12.00
2017-04-15T20:22:56.662Z,12.73
2017-04-15T20:24:02.295Z,13.28
2017-04-15T20:25:07.872Z,12.57
2017-04-15T20:26:13.424Z,11.18
2017-04-15T20:27:18.961Z,11.43
2017-04-15T20:28:25.220Z,11.50
2017-04-15T20:29:31.096Z,12.20
2017-04-15T20:30:36.928Z,12.30
2017-04-15T20:31:42.509Z,10.78
2017-04-15T20:32:48.160Z,10.97
2017-04-15T20:33:54.552Z,11.15
2017-04-15T20:35:00.027Z,11.02
2017-04-15T20:36:05.597Z,11.60
2017-04-15T20:37:11.041Z,10.53
2017-04-15T20:38:16.681Z,11.12
2017-04-15T20:39:23.123Z,11.05
2017-04-15T20:40:28.793Z,11.13
2017-04-15T20:41:34.316Z,11.27
2017-04-15T20:42:39.827Z,11.28
2017-04-15T20:43:45.529Z,10.95
2017-04-15T20:44:51.917Z,10.90
2017-04-15T20:45:57.356Z,11.00
2017-04-15T20:47:02.800Z,11.15
2017-04-15T20:48:08.460Z,11.05
2017-04-15T20:49:15.294Z,10.90
2017-04-15T20:50:20.840Z,10.58
2017-04-15T20:51:26.469Z,10.45
2017-04-15T20:52:31.988Z,10.93
2017-04-15T20:53:37.541Z,9.20
2017-04-15T20:54:43.209Z,9.38
2017-04-15T20:55:48.649Z,9.58
2017-04-15T20:56:54.323Z,9.10
2017-04-15T20:57:59.991Z,9.30
2017-04-15T20:59:05.517Z,9.55
2017-04-15T21:00:11.208Z,9.15
2017-04-15T21:01:16.609Z,9.30
2017-04-15T21:02:22.200Z,9.05
2017-04-15T21:03:27.891Z,9.08
2017-04-15T21:04:33.481Z,9.10
2017-04-15T21:05:39.936Z,9.37
2017-04-15T21:06:46.128Z,9.08
2017-04-15T21:07:52.119Z,9.65
2017-04-15T21:08:57.677Z,9.55
2017-04-15T21:10:03.338Z,8.87
2017-04-15T21:11:08.928Z,9.65
2017-04-15T21:12:14.648Z,9.90
2017-04-15T21:13:20.175Z,8.75
2017-04-15T21:14:25.858Z,9.83
2017-04-15T21:15:30.662Z,8.50
2017-04-15T21:16:36.351Z,9.75
2017-04-15T21:17:42.853Z,8.93
2017-04-15T21:18:48.401Z,8.73
2017-04-15T21:19:53.925Z,7.97
2017-04-15T21:20:59.689Z,8.28
2017-04-15T21:22:06.063Z,7.10
2017-04-15T21:23:12.152Z,7.78
2017-04-15T21:24:17.676Z,8.00
2017-04-15T21:25:23.316Z,8.08
2017-04-15T21:26:28.956Z,7.88
2017-04-15T21:27:34.735Z,7.30
2017-04-15T21:28:40.199Z,8.00
2017-04-15T21:29:45.725Z,7.63
2017-04-15T21:30:50.704Z,8.72
2017-04-15T21:31:57.049Z,7.98
2017-04-15T21:33:02.639Z,8.53
2017-04-15T21:34:08.192Z,8.12
2017-04-15T21:35:13.877Z,7.92
2017-04-15T21:36:19.392Z,8.03
2017-04-15T21:37:25.887Z,8.77
2017-04-15T21:38:31.940Z,8.98
2017-04-15T21:39:38.265Z,8.33
2017-04-15T21:40:43.928Z,8.35
2017-04-15T21:41:49.452Z,8.63
2017-04-15T21:42:54.232Z,8.78
2017-04-15T21:44:00.647Z,8.68
2017-04-15T21:45:06.253Z,9.07
2017-04-15T21:46:11.034Z,8.97
2017-04-15T21:47:17.449Z,7.93
2017-04-15T21:48:22.979Z,9.33
2017-04-15T21:49:29.409Z,8.75
2017-04-15T21:50:34.973Z,7.50
2017-04-15T21:51:40.509Z,8.45
2017-04-15T21:52:46.183Z,8.33
2017-04-15T21:53:51.750Z,7.60
2017-04-15T21:54:57.360Z,7.92
2017-04-15T21:56:02.574Z,8.48
2017-04-15T21:57:08.727Z,8.73
2017-04-15T21:58:13.668Z,8.77
2017-04-15T21:59:19.062Z,8.20
2017-04-15T22:00:24.678Z,10.02
2017-04-15T22:01:29.406Z,9.75
2017-04-15T22:02:35.725Z,8.87
2017-04-15T22:03:40.526Z,9.70
2017-04-15T22:04:45.968Z,9.87
2017-04-15T22:05:51.008Z,8.87
2017-04-15T22:06:57.174Z,8.80
2017-04-15T22:08:02.028Z,8.55
2017-04-15T22:09:08.423Z,8.58
2017-04-15T22:10:14.009Z,9.42
2017-04-15T22:11:19.672Z,9.13
2017-04-15T22:12:39.536Z,8.78
2017-04-15T22:13:50.861Z,8.48
2017-04-15T22:15:02.404Z,8.67
2017-04-15T22:16:09.748Z,8.47
2017-04-15T22:17:20.584Z,8.60
2017-04-15T22:18:31.923Z,8.95
2017-04-15T22:19:38.125Z,9.93
2017-04-15T22:20:43.765Z,8.97
2017-04-15T22:21:49.637Z,9.15
2017-04-15T22:22:59.782Z,8.93
2017-04-15T22:24:04.776Z,9.58
2017-04-15T22:25:11.201Z,9.33
2017-04-15T22:26:16.704Z,8.32
2017-04-15T22:27:22.218Z,8.42
2017-04-15T22:28:28.616Z,9.27
2017-04-15T22:29:34.139Z,8.18
2017-04-15T22:30:39.640Z,8.60
2017-04-15T22:31:45.228Z,8.40
2017-04-15T22:32:50.836Z,7.63
2017-04-15T22:33:56.539Z,9.27
2017-04-15T22:35:02.043Z,8.45
2017-04-15T22:36:07.616Z,8.10